Time;durP1;ratioP1;P1;durP2;ratioP2;P2;SDS_P1;SDS_P2;PMS_P1;PMS_P2;Temp;Humidity;BMP_temperature;BMP_pressure;BME280_temperature;BME280_humidity;BME280_pressure;Samples;Min_cycle;Max_cycle;Signal;HPM_P1;HPM_P2
2023/10/13 00:00:25;;;;;;;5.97;2.88;;;;;;;;;;10291801;28;20080;-64
2023/10/13 00:05:25;;;;;;;5.20;2.45;;;;;;;;;;10289562;28;20064;-64
2023/10/13 00:10:25;;;;;;;5.47;2.88;;;;;;;;;;10287859;28;20514;-64
2023/10/13 00:15:27;;;;;;;9.43;2.95;;;;;;;;;;10287647;28;20091;-63
2023/10/13 00:20:34;;;;;;;4.57;3.05;;;;;;;;;;10288994;28;20079;-63
2023/10/13 00:25:43;;;;;;;6.38;2.25;;;;;;;;;;10293499;28;20068;-64
2023/10/13 00:30:41;;;;;;;8.35;2.65;;;;;;;;;;10291821;28;20084;-64
2023/10/13 00:35:44;;;;;;;8.57;2.35;;;;;;;;;;10293011;28;20083;-63
2023/10/13 00:40:51;;;;;;;7.63;2.47;;;;;;;;;;10293516;28;20064;-64
2023/10/13 00:45:56;;;;;;;3.88;2.55;;;;;;;;;;10303841;28;20533;-64
2023/10/13 00:50:56;;;;;;;7.25;2.58;;;;;;;;;;10291364;28;20065;-63
2023/10/13 00:55:56;;;;;;;8.20;3.08;;;;;;;;;;10291818;28;20064;-63
2023/10/13 01:01:17;;;;;;;6.05;2.67;;;;;;;;;;10289611;28;20072;-64
2023/10/13 01:06:16;;;;;;;7.30;3.58;;;;;;;;;;10306405;28;20078;-64
2023/10/13 01:11:16;;;;;;;9.60;2.35;;;;;;;;;;10289790;28;20060;-63
2023/10/13 01:16:16;;;;;;;8.45;3.28;;;;;;;;;;10288781;28;20097;-65
2023/10/13 01:21:19;;;;;;;5.50;2.38;;;;;;;;;;10288906;28;20068;-63
2023/10/13 01:26:24;;;;;;;3.00;2.70;;;;;;;;;;10291951;28;20068;-63
2023/10/13 01:31:27;;;;;;;6.57;3.08;;;;;;;;;;10299165;28;20056;-64
2023/10/13 01:36:27;;;;;;;4.18;2.72;;;;;;;;;;10290225;28;20068;-64
2023/10/13 01:41:26;;;;;;;9.35;2.92;;;;;;;;;;10289062;28;20067;-64
2023/10/13 01:46:24;;;;;;;7.80;3.05;;;;;;;;;;10299752;28;20087;-63
2023/10/13 01:51:28;;;;;;;3.47;2.10;;;;;;;;;;10291825;28;20080;-63
2023/10/13 01:56:30;;;;;;;4.90;2.67;;;;;;;;;;10291117;28;20064;-64
2023/10/13 02:01:34;;;;;;;5.97;2.50;;;;;;;;;;10286423;28;20079;-64
2023/10/13 02:06:33;;;;;;;13.02;3.10;;;;;;;;;;10301096;28;20048;-63
2023/10/13 02:11:33;;;;;;;3.72;2.88;;;;;;;;;;10291014;28;20072;-63
2023/10/13 02:16:32;;;;;;;3.47;2.63;;;;;;;;;;10298318;28;20087;-64
2023/10/13 02:21:31;;;;;;;8.18;2.50;;;;;;;;;;10305098;28;20068;-63
2023/10/13 02:26:38;;;;;;;5.15;2.47;;;;;;;;;;10304044;28;20068;-63
2023/10/13 02:31:38;;;;;;;11.57;2.78;;;;;;;;;;10296617;28;20107;-62
2023/10/13 02:36:46;;;;;;;9.02;2.80;;;;;;;;;;10303259;28;20052;-63
2023/10/13 02:41:48;;;;;;;2.60;2.25;;;;;;;;;;10297056;28;20525;-65
2023/10/13 02:46:50;;;;;;;5.95;3.03;;;;;;;;;;10295810;28;20095;-63
2023/10/13 02:51:48;;;;;;;4.95;3.03;;;;;;;;;;10295138;28;20516;-64
2023/10/13 02:56:56;;;;;;;4.20;2.35;;;;;;;;;;10296280;28;20064;-63
2023/10/13 03:01:56;;;;;;;11.65;2.95;;;;;;;;;;10295729;28;20075;-64
2023/10/13 03:06:55;;;;;;;4.68;3.10;;;;;;;;;;10290819;28;20250;-65
2023/10/13 03:11:57;;;;;;;4.53;3.20;;;;;;;;;;10294337;28;20072;-64
2023/10/13 03:17:02;;;;;;;10.40;3.30;;;;;;;;;;10294584;28;20076;-64
2023/10/13 03:22:09;;;;;;;3.58;2.42;;;;;;;;;;10291035;28;20075;-64
2023/10/13 03:27:09;;;;;;;5.25;3.17;;;;;;;;;;10294539;28;20080;-63
2023/10/13 03:32:11;;;;;;;6.57;2.92;;;;;;;;;;10292928;28;20541;-63
2023/10/13 03:37:17;;;;;;;4.63;2.67;;;;;;;;;;10293754;28;20079;-62
2023/10/13 03:42:19;;;;;;;4.65;2.40;;;;;;;;;;10292864;28;20095;-64
2023/10/13 03:47:27;;;;;;;4.95;3.58;;;;;;;;;;10290923;28;20080;-62
2023/10/13 03:52:25;;;;;;;6.65;2.83;;;;;;;;;;10290949;28;20465;-64
2023/10/13 03:57:25;;;;;;;7.35;3.10;;;;;;;;;;10294522;28;20099;-63
2023/10/13 04:02:27;;;;;;;4.82;2.58;;;;;;;;;;10286616;28;20085;-62
2023/10/13 04:08:44;;;;;;;7.68;3.08;;;;;;;;;;10291119;28;20115;-64
2023/10/13 04:18:33;;;;;;;4.30;2.58;;;;;;;;;;10280247;28;20063;-63
2023/10/13 04:24:08;;;;;;;4.72;3.15;;;;;;;;;;10289356;28;20075;-65
2023/10/13 04:28:53;;;;;;;4.07;2.88;;;;;;;;;;10286811;28;20091;-63
2023/10/13 04:33:55;;;;;;;9.32;3.35;;;;;;;;;;10289886;28;20077;-64
2023/10/13 04:38:59;;;;;;;9.23;3.97;;;;;;;;;;10281105;28;21002;-65
2023/10/13 04:44:04;;;;;;;4.03;2.85;;;;;;;;;;10284920;28;20078;-65
2023/10/13 04:49:09;;;;;;;9.68;3.30;;;;;;;;;;10287691;28;20065;-65
2023/10/13 04:54:25;;;;;;;11.05;4.28;;;;;;;;;;10285224;28;20079;-64
2023/10/13 05:05:21;;;;;;;5.32;3.00;;;;;;;;;;10283377;28;20064;-65
2023/10/13 05:47:36;;;;;;;7.32;3.35;;;;;;;;;;10284466;28;20088;-64
2023/10/13 06:29:27;;;;;;;9.52;4.10;;;;;;;;;;10276874;28;20072;-64
2023/10/13 06:34:37;;;;;;;12.55;3.53;;;;;;;;;;10283678;28;20103;-64
2023/10/13 06:39:37;;;;;;;7.03;3.70;;;;;;;;;;10274320;28;20087;-64
2023/10/13 06:44:39;;;;;;;8.25;5.53;;;;;;;;;;10276355;28;20072;-64
2023/10/13 06:49:43;;;;;;;14.57;4.30;;;;;;;;;;10285026;28;20075;-64
2023/10/13 06:54:43;;;;;;;8.35;4.53;;;;;;;;;;10276704;28;20087;-64
2023/10/13 06:59:41;;;;;;;17.67;4.68;;;;;;;;;;10288214;28;20187;-65
2023/10/13 07:04:40;;;;;;;21.45;5.03;;;;;;;;;;10291763;28;20072;-65
2023/10/13 07:09:41;;;;;;;24.25;5.38;;;;;;;;;;10299796;28;20068;-64
2023/10/13 07:14:40;;;;;;;14.20;5.10;;;;;;;;;;10290414;28;20095;-65
2023/10/13 07:19:52;;;;;;;18.40;5.70;;;;;;;;;;10264461;28;20128;-65
2023/10/13 07:24:52;;;;;;;9.60;4.38;;;;;;;;;;10281814;28;20061;-65
2023/10/13 07:29:57;;;;;;;7.95;3.45;;;;;;;;;;10292174;28;20095;-65
2023/10/13 07:35:08;;;;;;;5.72;3.60;;;;;;;;;;10288928;28;20084;-65
2023/10/13 07:40:21;;;;;;;11.52;3.50;;;;;;;;;;10292994;28;20080;-65
2023/10/13 07:45:25;;;;;;;10.00;3.97;;;;;;;;;;10295263;28;20221;-65
2023/10/13 07:50:25;;;;;;;8.05;3.60;;;;;;;;;;10295257;28;20083;-65
2023/10/13 07:55:23;;;;;;;7.88;4.43;;;;;;;;;;10295271;28;20516;-65
2023/10/13 08:00:28;;;;;;;14.63;5.30;;;;;;;;;;10295448;28;20458;-65
2023/10/13 08:05:29;;;;;;;14.13;4.70;;;;;;;;;;10293660;28;20073;-64
2023/10/13 08:10:29;;;;;;;7.82;4.57;;;;;;;;;;10292768;28;20079;-66
2023/10/13 08:15:33;;;;;;;11.32;5.32;;;;;;;;;;10277413;28;20076;-64
2023/10/13 08:20:38;;;;;;;13.23;5.10;;;;;;;;;;10289424;28;20087;-64
2023/10/13 08:30:53;;;;;;;11.05;6.05;;;;;;;;;;10289568;28;20079;-64
2023/10/13 08:46:28;;;;;;;11.68;5.45;;;;;;;;;;10293081;28;20076;-64
2023/10/13 08:51:43;;;;;;;11.60;5.43;;;;;;;;;;10291955;28;20080;-64
2023/10/13 08:56:54;;;;;;;8.40;5.25;;;;;;;;;;10289402;28;20068;-64
2023/10/13 09:02:15;;;;;;;14.68;6.22;;;;;;;;;;10292244;28;20068;-64
2023/10/13 09:07:21;;;;;;;10.73;6.53;;;;;;;;;;10288862;28;20072;-64
2023/10/13 09:12:25;;;;;;;10.27;5.90;;;;;;;;;;10284466;28;20069;-63
2023/10/13 09:17:35;;;;;;;15.60;6.03;;;;;;;;;;10290302;28;20068;-64
2023/10/13 09:22:36;;;;;;;13.98;6.00;;;;;;;;;;10291466;28;20110;-64
2023/10/13 09:27:37;;;;;;;14.50;6.53;;;;;;;;;;10292080;28;20506;-64
2023/10/13 09:32:45;;;;;;;13.23;5.82;;;;;;;;;;10292307;28;20076;-63
2023/10/13 09:37:46;;;;;;;9.70;5.70;;;;;;;;;;10288936;28;20079;-65
2023/10/13 09:42:44;;;;;;;9.00;5.03;;;;;;;;;;10291716;28;20080;-64
2023/10/13 09:47:44;;;;;;;12.77;5.57;;;;;;;;;;10291887;28;20080;-64
2023/10/13 09:52:44;;;;;;;12.00;5.28;;;;;;;;;;10291086;28;20076;-64
2023/10/13 09:57:48;;;;;;;8.75;4.13;;;;;;;;;;10289552;28;20072;-64
2023/10/13 10:02:46;;;;;;;;;;;;;;;;;;10290603;28;20077;-64
2023/10/13 10:07:55;;;;;;;8.98;4.85;;;;;;;;;;10290654;28;19960;-65
2023/10/13 10:12:57;;;;;;;12.05;4.57;;;;;;;;;;10289789;28;20091;-64
2023/10/13 10:17:55;;;;;;;12.38;5.03;;;;;;;;;;10289786;28;20075;-64
2023/10/13 10:22:59;;;;;;;22.55;6.22;;;;;;;;;;10290681;28;20068;-64
2023/10/13 10:27:58;;;;;;;14.32;6.93;;;;;;;;;;10290808;28;20406;-64
2023/10/13 10:32:59;;;;;;;18.17;8.75;;;;;;;;;;10293022;28;20075;-64
2023/10/13 10:38:11;;;;;;;18.33;8.15;;;;;;;;;;10298659;28;20075;-64
2023/10/13 10:43:10;;;;;;;19.08;8.23;;;;;;;;;;10281273;28;20080;-64
2023/10/13 10:48:34;;;;;;;19.33;7.28;;;;;;;;;;10298040;28;20084;-64
2023/10/13 10:53:43;;;;;;;17.83;8.85;;;;;;;;;;10294734;28;20538;-64
2023/10/13 10:58:44;;;;;;;12.07;6.40;;;;;;;;;;10293627;28;20064;-65
2023/10/13 11:03:57;;;;;;;13.35;6.57;;;;;;;;;;10292858;28;20501;-65
2023/10/13 11:09:18;;;;;;;16.15;5.80;;;;;;;;;;10295788;28;20068;-65
2023/10/13 11:14:26;;;;;;;28.65;6.45;;;;;;;;;;10296511;28;20479;-64
2023/10/13 11:19:36;;;;;;;12.75;6.28;;;;;;;;;;10292748;28;20087;-64
2023/10/13 11:24:42;;;;;;;16.83;6.07;;;;;;;;;;10296318;28;20072;-64
2023/10/13 11:29:40;;;;;;;16.75;6.32;;;;;;;;;;10293826;28;20075;-64
2023/10/13 11:34:40;;;;;;;10.38;5.78;;;;;;;;;;10295175;28;20120;-64
2023/10/13 11:39:42;;;;;;;14.63;5.50;;;;;;;;;;10296097;28;20094;-64
2023/10/13 11:44:44;;;;;;;16.20;5.38;;;;;;;;;;10295179;28;20083;-65
2023/10/13 11:49:42;;;;;;;11.68;6.40;;;;;;;;;;10294183;28;20113;-64
2023/10/13 11:54:41;;;;;;;18.55;6.32;;;;;;;;;;10295044;28;20076;-65
2023/10/13 11:59:52;;;;;;;15.15;6.20;;;;;;;;;;10293239;28;20529;-65
2023/10/13 12:04:54;;;;;;;14.23;5.68;;;;;;;;;;10304655;28;20485;-64
2023/10/13 12:10:03;;;;;;;14.07;6.72;;;;;;;;;;10292245;28;20068;-65
2023/10/13 12:15:09;;;;;;;15.20;6.15;;;;;;;;;;10293119;28;20079;-65
2023/10/13 12:20:10;;;;;;;25.70;6.47;;;;;;;;;;10292116;28;20080;-65
2023/10/13 12:25:25;;;;;;;12.55;5.47;;;;;;;;;;10293290;28;20075;-64
2023/10/13 12:30:35;;;;;;;19.05;6.88;;;;;;;;;;10293531;28;20069;-64
2023/10/13 12:35:44;;;;;;;18.95;6.45;;;;;;;;;;10294372;28;20075;-63
2023/10/13 12:51:40;;;;;;;14.88;7.40;;;;;;;;;;10294377;28;20072;-64
2023/10/13 12:56:41;;;;;;;18.55;8.68;;;;;;;;;;10291668;28;20457;-64
2023/10/13 13:01:42;;;;;;;29.02;7.43;;;;;;;;;;10292144;28;20191;-65
2023/10/13 13:06:41;;;;;;;26.80;7.68;;;;;;;;;;10293394;28;20060;-64
2023/10/13 13:11:40;;;;;;;18.52;6.53;;;;;;;;;;10292393;28;20076;-64
2023/10/13 13:16:39;;;;;;;13.07;7.28;;;;;;;;;;10292126;28;20076;-64
2023/10/13 13:21:37;;;;;;;19.25;7.32;;;;;;;;;;10292184;28;20075;-64
2023/10/13 13:26:40;;;;;;;13.57;6.20;;;;;;;;;;10290375;28;20083;-64
2023/10/13 13:31:43;;;;;;;16.90;7.80;;;;;;;;;;10292348;28;20065;-65
2023/10/13 13:36:44;;;;;;;29.10;7.68;;;;;;;;;;10289961;28;20522;-65
2023/10/13 13:41:44;;;;;;;17.27;7.28;;;;;;;;;;10289665;28;20072;-65
2023/10/13 13:46:42;;;;;;;14.27;6.60;;;;;;;;;;10290625;28;20072;-64
2023/10/13 13:51:41;;;;;;;25.50;8.00;;;;;;;;;;10288438;28;20059;-65
2023/10/13 13:56:39;;;;;;;25.30;8.25;;;;;;;;;;10288806;28;20083;-64
2023/10/13 14:01:40;;;;;;;27.35;10.15;;;;;;;;;;10290455;28;20509;-63
2023/10/13 14:06:39;;;;;;;19.90;8.38;;;;;;;;;;10293485;28;20474;-65
2023/10/13 14:17:02;;;;;;;34.88;12.02;;;;;;;;;;10294517;28;20076;-64
2023/10/13 14:22:06;;;;;;;35.45;9.80;;;;;;;;;;10281898;28;20095;-65
2023/10/13 14:27:09;;;;;;;18.45;8.95;;;;;;;;;;10293327;28;20581;-65
2023/10/13 14:32:12;;;;;;;15.02;8.73;;;;;;;;;;10293973;28;20068;-65
2023/10/13 14:37:12;;;;;;;19.83;8.35;;;;;;;;;;10293150;28;20506;-65
2023/10/13 14:42:10;;;;;;;19.88;8.95;;;;;;;;;;10297163;28;20072;-65
2023/10/13 14:47:15;;;;;;;17.20;8.63;;;;;;;;;;10298322;28;20494;-64
2023/10/13 14:52:13;;;;;;;22.10;8.95;;;;;;;;;;10297696;28;20131;-65
2023/10/13 14:57:12;;;;;;;18.40;8.80;;;;;;;;;;10298157;28;20072;-65
2023/10/13 15:02:10;;;;;;;23.90;8.07;;;;;;;;;;10298301;28;20072;-65
2023/10/13 15:07:10;;;;;;;23.27;8.63;;;;;;;;;;10295837;28;20075;-64
2023/10/13 15:12:10;;;;;;;16.08;7.30;;;;;;;;;;10294695;28;20080;-65
2023/10/13 15:17:09;;;;;;;27.13;10.55;;;;;;;;;;10296502;28;20084;-64
2023/10/13 15:22:08;;;;;;;19.48;8.30;;;;;;;;;;10296794;28;20076;-66
2023/10/13 15:27:08;;;;;;;16.27;7.78;;;;;;;;;;10296651;28;20064;-65
2023/10/13 15:37:19;;;;;;;27.33;8.63;;;;;;;;;;10280615;28;20064;-64
2023/10/13 15:42:20;;;;;;;18.37;8.60;;;;;;;;;;10294781;28;20080;-64
2023/10/13 15:47:19;;;;;;;21.60;8.30;;;;;;;;;;10293908;28;20069;-64
2023/10/13 15:52:20;;;;;;;17.90;8.98;;;;;;;;;;10295398;28;20068;-64
2023/10/13 15:57:20;;;;;;;19.25;10.13;;;;;;;;;;10294907;28;20075;-64
2023/10/13 16:02:20;;;;;;;19.73;10.45;;;;;;;;;;10295571;28;20072;-65
2023/10/13 16:07:20;;;;;;;25.90;9.45;;;;;;;;;;10294071;28;20487;-65
2023/10/13 16:12:19;;;;;;;16.63;7.97;;;;;;;;;;10292074;28;20078;-64
2023/10/13 16:17:21;;;;;;;21.90;8.40;;;;;;;;;;10295052;28;20068;-65
2023/10/13 16:22:19;;;;;;;21.27;18.35;;;;;;;;;;10293236;28;20075;-65
2023/10/13 16:27:19;;;;;;;35.22;20.67;;;;;;;;;;10294247;28;20076;-65
2023/10/13 16:32:19;;;;;;;23.13;15.60;;;;;;;;;;10292394;28;20068;-65
2023/10/13 16:37:17;;;;;;;21.40;9.88;;;;;;;;;;10292436;28;20075;-65
2023/10/13 16:42:16;;;;;;;17.77;8.40;;;;;;;;;;10295059;28;20087;-65
2023/10/13 16:47:14;;;;;;;19.05;7.80;;;;;;;;;;10287624;28;20506;-64
2023/10/13 16:52:14;;;;;;;15.25;8.50;;;;;;;;;;10290299;28;20072;-64
2023/10/13 16:57:12;;;;;;;22.23;8.13;;;;;;;;;;10292431;28;20073;-65
2023/10/13 17:02:11;;;;;;;18.98;8.82;;;;;;;;;;10291455;28;20056;-65
2023/10/13 17:07:09;;;;;;;24.98;9.70;;;;;;;;;;10293685;28;20103;-66
2023/10/13 17:12:10;;;;;;;16.27;7.30;;;;;;;;;;10289865;28;20465;-64
2023/10/13 17:17:08;;;;;;;14.45;7.10;;;;;;;;;;10289976;28;20091;-65
2023/10/13 17:22:07;;;;;;;14.20;7.35;;;;;;;;;;10292905;28;20079;-64
2023/10/13 17:27:07;;;;;;;24.80;6.47;;;;;;;;;;10290042;28;20079;-65
2023/10/13 17:32:08;;;;;;;17.83;6.18;;;;;;;;;;10292486;28;20071;-64
2023/10/13 17:37:07;;;;;;;15.73;6.55;;;;;;;;;;10291272;28;20066;-65
2023/10/13 17:42:05;;;;;;;22.60;9.90;;;;;;;;;;10272980;28;20069;-66
2023/10/13 17:47:10;;;;;;;40.97;14.90;;;;;;;;;;10288540;28;20081;-66
2023/10/13 17:52:08;;;;;;;;;;;;;;;;;;10288318;28;20075;-65
2023/10/13 17:57:08;;;;;;;39.15;19.65;;;;;;;;;;10275663;28;19960;-64
2023/10/13 18:02:06;;;;;;;42.05;16.05;;;;;;;;;;10280762;28;20138;-65
2023/10/13 18:07:05;;;;;;;34.85;11.20;;;;;;;;;;10271921;28;20083;-64
2023/10/13 18:12:04;;;;;;;26.80;7.47;;;;;;;;;;10276928;28;20076;-64
2023/10/13 18:17:04;;;;;;;15.68;6.20;;;;;;;;;;10277049;28;20522;-63
2023/10/13 18:22:04;;;;;;;14.35;6.07;;;;;;;;;;10273186;28;20535;-65
2023/10/13 18:27:02;;;;;;;15.95;6.18;;;;;;;;;;10282301;28;20079;-64
2023/10/13 18:32:00;;;;;;;22.33;6.05;;;;;;;;;;10288991;28;20450;-65
2023/10/13 18:37:00;;;;;;;15.82;6.40;;;;;;;;;;10290104;28;20091;-65
2023/10/13 18:41:59;;;;;;;19.23;6.30;;;;;;;;;;10290405;28;20858;-64
2023/10/13 18:46:58;;;;;;;16.80;5.13;;;;;;;;;;10285418;28;20095;-64
2023/10/13 18:51:57;;;;;;;20.75;6.57;;;;;;;;;;10291209;28;20072;-65
2023/10/13 18:56:56;;;;;;;24.25;9.88;;;;;;;;;;10298322;28;20061;-65
2023/10/13 19:01:56;;;;;;;33.35;12.35;;;;;;;;;;10296667;28;20068;-65
2023/10/13 19:06:55;;;;;;;26.98;15.48;;;;;;;;;;10289726;28;20080;-65
2023/10/13 19:11:55;;;;;;;12.60;7.28;;;;;;;;;;10289698;28;20113;-65
2023/10/13 19:16:57;;;;;;;23.13;6.43;;;;;;;;;;10290409;28;20346;-65
2023/10/13 19:21:57;;;;;;;20.00;5.65;;;;;;;;;;10284281;28;20471;-65
2023/10/13 19:26:55;;;;;;;12.60;5.97;;;;;;;;;;10287419;28;20068;-64
2023/10/13 19:31:55;;;;;;;27.63;7.38;;;;;;;;;;10276731;28;20069;-65
2023/10/13 19:37:03;;;;;;;19.63;5.72;;;;;;;;;;10286204;28;20068;-64
2023/10/13 19:42:01;;;;;;;12.05;5.45;;;;;;;;;;10288007;28;20526;-64
2023/10/13 19:47:01;;;;;;;17.38;5.82;;;;;;;;;;10292495;28;20110;-64
2023/10/13 19:51:59;;;;;;;20.05;5.53;;;;;;;;;;10290627;28;20540;-64
2023/10/13 19:56:57;;;;;;;14.63;5.80;;;;;;;;;;10295977;28;20072;-64
2023/10/13 20:01:55;;;;;;;13.43;6.63;;;;;;;;;;10293679;28;20072;-65
2023/10/13 20:06:56;;;;;;;15.05;6.70;;;;;;;;;;10295895;28;20073;-66
2023/10/13 20:11:57;;;;;;;23.20;6.20;;;;;;;;;;10293132;28;20075;-65
2023/10/13 20:16:56;;;;;;;13.73;6.22;;;;;;;;;;10299553;28;20084;-64
2023/10/13 20:21:57;;;;;;;14.63;5.35;;;;;;;;;;10292978;28;20064;-64
2023/10/13 20:26:56;;;;;;;12.07;5.93;;;;;;;;;;10291921;28;20467;-65
2023/10/13 20:31:54;;;;;;;16.08;6.30;;;;;;;;;;10290714;28;20075;-64
2023/10/13 20:36:54;;;;;;;16.25;6.03;;;;;;;;;;10292946;28;20068;-65
2023/10/13 20:41:54;;;;;;;25.35;6.90;;;;;;;;;;10293048;28;20079;-65
2023/10/13 20:46:53;;;;;;;11.27;5.38;;;;;;;;;;10292976;28;20098;-65
2023/10/13 20:51:51;;;;;;;22.23;6.97;;;;;;;;;;10290597;28;20068;-64
2023/10/13 20:56:49;;;;;;;11.38;5.50;;;;;;;;;;10292179;28;20068;-65
2023/10/13 21:01:49;;;;;;;16.95;5.75;;;;;;;;;;10292253;28;20064;-64
2023/10/13 21:06:49;;;;;;;15.05;5.43;;;;;;;;;;10292015;28;20072;-63
2023/10/13 21:11:48;;;;;;;12.68;6.97;;;;;;;;;;10289678;28;20106;-65
2023/10/13 21:16:47;;;;;;;17.27;8.00;;;;;;;;;;10290303;28;20083;-65
2023/10/13 21:21:46;;;;;;;18.27;9.02;;;;;;;;;;10289247;28;20082;-64
2023/10/13 21:26:48;;;;;;;12.20;6.82;;;;;;;;;;10290734;28;20495;-65
2023/10/13 21:31:47;;;;;;;19.88;8.40;;;;;;;;;;10291331;28;20082;-65
2023/10/13 21:36:47;;;;;;;18.25;7.72;;;;;;;;;;10290503;28;20076;-65
2023/10/13 21:41:47;;;;;;;14.00;8.13;;;;;;;;;;10291339;28;20654;-65
2023/10/13 21:46:45;;;;;;;14.85;6.25;;;;;;;;;;10290280;28;20083;-65
2023/10/13 21:51:44;;;;;;;17.80;5.25;;;;;;;;;;10290399;28;20092;-63
2023/10/13 21:56:44;;;;;;;13.48;4.57;;;;;;;;;;10288105;28;20063;-63
2023/10/13 22:01:45;;;;;;;11.57;6.18;;;;;;;;;;10289106;28;20076;-65
2023/10/13 22:06:45;;;;;;;19.85;6.60;;;;;;;;;;10289069;28;20084;-64
2023/10/13 22:11:46;;;;;;;11.10;5.43;;;;;;;;;;10289631;28;20477;-64
2023/10/13 22:16:44;;;;;;;19.05;5.88;;;;;;;;;;10288490;28;20106;-64
2023/10/13 22:21:43;;;;;;;13.02;5.05;;;;;;;;;;10286342;28;20087;-65
2023/10/13 22:26:43;;;;;;;15.65;5.80;;;;;;;;;;10290171;28;20076;-65
2023/10/13 22:31:43;;;;;;;16.58;5.53;;;;;;;;;;10297823;28;20076;-65
2023/10/13 22:36:43;;;;;;;15.23;4.75;;;;;;;;;;10295806;28;20082;-65
2023/10/13 22:42:00;;;;;;;14.20;5.22;;;;;;;;;;10296136;28;20072;-64
2023/10/13 22:47:00;;;;;;;9.35;4.90;;;;;;;;;;10293008;28;20080;-64
2023/10/13 22:51:59;;;;;;;8.70;5.68;;;;;;;;;;10289498;28;20096;-65
2023/10/13 22:56:57;;;;;;;15.90;5.38;;;;;;;;;;10293901;28;20080;-65
2023/10/13 23:01:58;;;;;;;9.35;4.97;;;;;;;;;;10297256;28;20072;-65
2023/10/13 23:06:59;;;;;;;12.43;5.72;;;;;;;;;;10295298;28;20072;-64
2023/10/13 23:12:04;;;;;;;14.57;6.30;;;;;;;;;;10295215;28;20085;-64
2023/10/13 23:17:03;;;;;;;17.38;5.93;;;;;;;;;;10296975;28;20087;-65
2023/10/13 23:22:05;;;;;;;12.65;5.53;;;;;;;;;;10297161;28;20080;-65
2023/10/13 23:27:05;;;;;;;11.70;6.38;;;;;;;;;;10295623;28;20087;-64
2023/10/13 23:32:03;;;;;;;18.48;6.13;;;;;;;;;;10294412;28;20088;-65
2023/10/13 23:37:10;;;;;;;17.83;5.68;;;;;;;;;;10293873;28;20087;-64
2023/10/13 23:42:19;;;;;;;14.30;5.63;;;;;;;;;;10306297;28;20049;-66
2023/10/13 23:47:27;;;;;;;12.70;5.03;;;;;;;;;;10295545;28;20082;-65
2023/10/13 23:52:33;;;;;;;16.63;5.47;;;;;;;;;;10292159;28;20083;-65
2023/10/13 23:57:31;;;;;;;13.20;5.25;;;;;;;;;;10295517;28;20067;-65
